Time;durP1;ratioP1;P1;durP2;ratioP2;P2;SDS_P1;SDS_P2;PMS_P1;PMS_P2;Temp;Humidity;BMP_temperature;BMP_pressure;BME280_temperature;BME280_humidity;BME280_pressure;Samples;Min_cycle;Max_cycle;Signal;HPM_P1;HPM_P2
2022/04/13 00:00:07;;;;;;;;;;;12.40;36.70;;;10.95;40.36;101401.31;8387886;28;20003;-86
2022/04/13 00:04:31;;;;;;;;;;;12.50;36.80;;;10.88;40.81;101398.09;8395662;28;20031;-85
2022/04/13 00:08:55;;;;;;;;;;;12.50;36.80;;;10.98;39.93;101412.44;8376222;28;19921;-85
2022/04/13 00:13:18;;;;;;;;;;;12.40;36.80;;;10.96;39.88;101410.81;8381210;28;19995;-86
2022/04/13 00:17:40;;;;;;;;;;;12.40;36.80;;;10.88;40.04;101397.25;8394469;28;20016;-86
2022/04/13 00:22:01;;;;;;;;;;;12.30;36.80;;;10.84;40.47;101386.13;8362363;28;20413;-86
2022/04/13 00:26:23;;;;;;;;;;;12.30;36.90;;;10.78;40.61;101371.56;8376613;28;20003;-85
2022/04/13 00:30:46;;;;;;;;;;;12.20;36.80;;;10.88;40.72;101394.66;8375960;28;19921;-85
2022/04/13 00:35:07;;;;;;;;;;;12.40;36.90;;;10.83;40.22;101392.28;8367155;28;19917;-86
2022/04/13 00:39:29;;;;;;;;;;;12.30;36.90;;;10.79;40.35;101380.25;8349428;28;19924;-85
2022/04/13 00:44:04;;;;;;;;;;;12.30;36.90;;;10.73;40.54;101364.88;8356439;28;20585;-85
2022/04/13 00:48:35;;;;;;;;;;;12.30;36.90;;;10.74;40.67;101387.44;8361558;28;19928;-86
2022/04/13 00:52:58;;;;;;;;;;;12.20;36.90;;;10.69;41.12;101389.41;8336818;28;19965;-85
2022/04/13 00:57:21;;;;;;;;;;;12.10;36.90;;;10.59;40.62;101389.84;8356206;28;19916;-86
2022/04/13 01:01:47;;;;;;;;;;;12.00;36.90;;;10.59;40.42;101396.81;8343036;28;19920;-84
2022/04/13 01:06:09;;;;;;;;;;;12.10;37.00;;;10.34;40.86;101369.19;8363286;28;20373;-85
2022/04/13 01:10:32;;;;;;;;;;;12.00;37.00;;;10.45;40.58;101401.78;8378017;28;19921;-85
2022/04/13 01:14:54;;;;;;;;;;;12.00;37.00;;;10.25;40.74;101379.13;8368250;28;19940;-84
2022/04/13 01:19:18;;;;;;;;;;;11.90;37.00;;;10.33;41.03;101403.19;8367559;28;19922;-84
2022/04/13 01:23:39;;;;;;;;;;;11.80;37.00;;;10.29;40.48;101402.47;8378848;28;20446;-84
2022/04/13 01:28:01;;;;;;;;;;;11.80;37.00;;;10.17;40.91;101392.53;8383346;28;19925;-86
2022/04/13 01:32:23;;;;;;;;;;;11.70;37.00;;;10.04;40.27;101370.47;8392870;28;20010;-85
2022/04/13 01:36:46;;;;;;;;;;;11.70;37.10;;;10.01;40.25;101381.03;8390760;28;20003;-85
2022/04/13 01:41:08;;;;;;;;;;;11.60;37.10;;;9.95;40.86;101384.75;8385210;28;19916;-86
2022/04/13 01:45:30;;;;;;;;;;;11.50;37.10;;;9.73;40.68;101364.78;8383392;28;19999;-86
2022/04/13 01:49:51;;;;;;;;;;;11.40;37.10;;;9.87;41.17;101394.66;8392687;28;19927;-85
2022/04/13 01:54:13;;;;;;;;;;;11.40;37.20;;;9.62;40.80;101361.78;8398715;28;20003;-85
2022/04/13 01:58:34;;;;;;;;;;;11.30;37.20;;;9.75;40.75;101390.81;8393618;28;19916;-86
2022/04/13 02:02:56;;;;;;;;;;;11.30;37.20;;;9.64;41.09;101378.22;8390830;28;19923;-86
2022/04/13 02:07:18;;;;;;;;;;;11.60;37.40;;;9.65;40.98;101385.09;8382220;28;20364;-86
2022/04/13 02:11:40;;;;;;;;;;;11.20;37.30;;;9.50;41.21;101372.69;8394133;28;20349;-85
2022/04/13 02:16:02;;;;;;;;;;;11.10;37.30;;;9.45;40.69;101374.63;8380588;28;20011;-86
2022/04/13 02:20:24;;;;;;;;;;;11.10;37.30;;;9.39;40.73;101361.84;8382644;28;20418;-85
2022/04/13 02:24:46;;;;;;;;;;;11.10;37.40;;;9.46;40.92;101390.22;8399102;28;20000;-86
2022/04/13 02:29:08;;;;;;;;;;;11.00;37.30;;;9.28;41.07;101365.72;8356094;28;19921;-85
2022/04/13 02:33:32;;;;;;;;;;;10.90;37.40;;;9.27;41.23;101364.03;8394674;28;20010;-86
2022/04/13 02:37:54;;;;;;;;;;;10.90;37.40;;;9.21;40.88;101360.84;8386742;28;19920;-86
2022/04/13 02:42:16;;;;;;;;;;;10.80;37.50;;;9.28;41.07;101378.75;8397368;28;19995;-86
2022/04/13 02:46:38;;;;;;;;;;;10.70;37.40;;;9.26;40.93;101377.09;8392039;28;19922;-86
2022/04/13 02:51:00;;;;;;;;;;;10.80;37.50;;;9.22;41.65;101368.56;8390052;28;20642;-86
2022/04/13 02:55:22;;;;;;;;;;;10.70;37.50;;;9.09;41.13;101349.97;8359128;28;19923;-86
2022/04/13 02:59:46;;;;;;;;;;;10.70;37.50;;;9.08;40.99;101353.47;8382232;28;20049;-85
2022/04/13 03:04:07;;;;;;;;;;;10.70;37.50;;;9.02;40.91;101356.34;8379119;28;20031;-86
2022/04/13 03:08:30;;;;;;;;;;;10.60;37.40;;;9.07;41.30;101377.84;8361889;28;19942;-85
2022/04/13 03:12:51;;;;;;;;;;;10.60;37.50;;;8.96;41.16;101360.91;8367495;28;19950;-86
2022/04/13 03:17:13;;;;;;;;;;;10.50;37.40;;;8.86;40.93;101363.03;8366195;28;20326;-86
2022/04/13 03:21:35;;;;;;;;;;;10.50;37.50;;;8.71;41.05;101354.03;8329025;28;20434;-86
2022/04/13 03:25:57;;;;;;;;;;;10.50;37.50;;;8.64;41.12;101352.53;8357280;28;19916;-86
2022/04/13 03:30:19;;;;;;;;;;;10.40;37.40;;;8.55;41.34;101337.28;8381289;28;19921;-86
2022/04/13 03:34:41;;;;;;;;;;;10.30;37.60;;;8.52;41.07;101340.00;8354131;28;20355;-86
2022/04/13 03:39:03;;;;;;;;;;;10.20;37.60;;;8.56;41.40;101365.88;8363967;28;20444;-86
2022/04/13 03:43:27;;;;;;;;;;;10.10;37.60;;;8.46;41.40;101355.84;8368098;28;19995;-85
2022/04/13 03:47:49;;;;;;;;;;;10.10;37.70;;;8.20;41.41;101331.56;8344636;28;20011;-85
2022/04/13 03:52:10;;;;;;;;;;;9.90;37.60;;;8.27;41.71;101364.28;8382561;28;20003;-85
2022/04/13 03:56:33;;;;;;;;;;;10.00;37.80;;;8.18;41.42;101348.97;8353984;28;19926;-86
2022/04/13 04:00:55;;;;;;;;;;;9.90;37.80;;;8.25;41.40;101368.69;8333955;28;20027;-86
2022/04/13 04:05:17;;;;;;;;;;;9.70;37.80;;;8.19;41.52;101363.69;8341700;28;19927;-86
2022/04/13 04:09:39;;;;;;;;;;;9.90;37.90;;;8.22;41.56;101365.34;8375754;28;19920;-85
2022/04/13 04:14:01;;;;;;;;;;;9.90;38.10;;;8.06;41.52;101350.25;8391615;28;20035;-86
2022/04/13 04:18:23;;;;;;;;;;;9.80;37.90;;;8.28;41.69;101381.56;8369316;28;19927;-85
2022/04/13 04:22:45;;;;;;;;;;;9.80;38.10;;;8.23;41.65;101380.88;8369665;28;19946;-86
2022/04/13 04:27:06;;;;;;;;;;;9.80;38.00;;;8.16;41.51;101367.25;8348368;28;19939;-86
2022/04/13 04:36:10;;;;;;;;;;;9.90;38.10;;;8.16;41.45;101369.00;8374991;28;20464;-86
2022/04/13 04:40:31;;;;;;;;;;;9.80;38.00;;;8.24;41.64;101386.97;8375072;28;20008;-86
2022/04/13 04:44:59;;;;;;;;;;;9.90;38.10;;;8.11;41.67;101376.13;8378027;28;20384;-86
2022/04/13 04:49:21;;;;;;;;;;;9.80;38.00;;;8.18;41.34;101386.28;8392927;28;19926;-86
2022/04/13 04:53:43;;;;;;;;;;;9.70;38.00;;;8.06;41.83;101357.22;8365355;28;20015;-86
2022/04/13 04:58:04;;;;;;;;;;;9.80;38.10;;;8.12;41.91;101370.00;8362851;28;20007;-85
2022/04/13 05:02:26;;;;;;;;;;;9.90;38.20;;;8.05;42.06;101360.72;8363682;28;20086;-86
2022/04/13 05:06:48;;;;;;;;;;;9.80;38.10;;;8.20;41.98;101391.41;8372578;28;20367;-86
2022/04/13 05:11:10;;;;;;;;;;;9.80;38.20;;;8.22;42.04;101399.16;8362633;28;19988;-86
2022/04/13 05:15:32;;;;;;;;;;;9.80;38.20;;;8.17;42.26;101386.31;8363253;28;20015;-86
2022/04/13 05:19:54;;;;;;;;;;;9.80;38.30;;;8.18;42.38;101386.28;8345100;28;20014;-86
2022/04/13 05:24:15;;;;;;;;;;;9.90;38.30;;;8.18;42.06;101377.59;8359277;28;20015;-86
2022/04/13 05:28:37;;;;;;;;;;;10.00;38.40;;;8.33;41.95;101389.22;8337960;28;20389;-86
2022/04/13 05:32:59;;;;;;;;;;;9.90;38.80;;;8.19;42.03;101361.09;8356693;28;19923;-86
2022/04/13 05:37:21;;;;;;;;;;;9.90;38.50;;;8.41;41.94;101402.84;8358900;28;20407;-85
2022/04/13 05:41:43;;;;;;;;;;;10.10;38.60;;;8.37;42.07;101389.06;8373922;28;20457;-86
2022/04/13 05:46:05;;;;;;;;;;;10.10;38.50;;;8.44;42.09;101384.53;8385857;28;19917;-86
2022/04/13 05:50:27;;;;;;;;;;;10.20;38.70;;;8.52;41.99;101395.50;8373791;28;19924;-86
2022/04/13 05:54:49;;;;;;;;;;;10.20;38.70;;;8.69;42.28;101413.13;8355642;28;19916;-84
2022/04/13 05:59:11;;;;;;;;;;;10.30;38.80;;;8.77;42.24;101408.47;8386047;28;20006;-87
2022/04/13 06:03:32;;;;;;;;;;;10.30;38.70;;;8.86;42.12;101409.91;8366212;28;20365;-83
2022/04/13 06:07:54;;;;;;;;;;;10.50;38.80;;;8.96;42.23;101415.63;8356225;28;19996;-87
2022/04/13 06:12:23;;;;;;;;;;;10.60;38.90;;;8.97;42.55;101396.50;8353091;28;19927;-89
2022/04/13 06:16:44;;;;;;;;;;;10.70;38.90;;;9.15;42.15;101406.19;8357727;28;20471;-86
2022/04/13 06:21:08;;;;;;;;;;;10.80;38.80;;;9.37;42.74;101421.88;8356564;28;19923;-84
2022/04/13 06:25:30;;;;;;;;;;;11.00;39.00;;;9.52;42.62;101417.81;8385028;28;20380;-89
2022/04/13 06:29:53;;;;;;;;;;;11.10;39.00;;;9.54;42.54;101397.72;8363501;28;19920;-92
2022/04/13 06:34:16;;;;;;;;;;;11.30;39.00;;;9.69;42.17;101384.09;8350526;28;19923;-89
2022/04/13 06:38:40;;;;;;;;;;;11.50;39.00;;;10.02;42.54;101429.69;8361540;28;19939;-90
2022/04/13 06:43:02;;;;;;;;;;;11.70;39.00;;;10.11;42.48;101418.88;8372781;28;20003;-86
2022/04/13 06:47:24;;;;;;;;;;;11.80;39.00;;;10.27;42.64;101414.75;8377195;28;19921;-83
2022/04/13 06:51:45;;;;;;;;;;;11.90;39.20;;;10.49;42.44;101412.03;8386676;28;19921;-88
2022/04/13 06:56:07;;;;;;;;;;;12.10;39.00;;;10.63;42.47;101414.03;8349917;28;20003;-87
2022/04/13 07:00:29;;;;;;;;;;;12.40;38.90;;;10.74;42.52;101400.50;8374721;28;19923;-89
2022/04/13 07:04:51;;;;;;;;;;;12.60;39.00;;;11.07;42.50;101435.56;8350348;28;19916;-88
2022/04/13 07:09:13;;;;;;;;;;;12.70;38.90;;;11.12;42.37;101411.81;8342682;28;20404;-89
2022/04/13 07:13:35;;;;;;;;;;;12.90;39.00;;;11.43;42.20;101442.63;8352301;28;19996;-89
2022/04/13 07:17:57;;;;;;;;;;;12.90;38.90;;;11.54;42.37;101415.09;8350772;28;19931;-90
2022/04/13 07:22:19;;;;;;;;;;;13.30;39.00;;;11.85;42.36;101438.84;8372287;28;20038;-91
2022/04/13 07:26:41;;;;;;;;;;;13.40;38.90;;;11.93;42.45;101428.88;8353038;28;20003;-89
2022/04/13 07:31:02;;;;;;;;;;;13.70;38.50;;;12.06;42.26;101402.94;8394056;28;19920;-94
2022/04/13 07:35:24;;;;;;;;;;;13.80;38.60;;;12.47;42.21;101438.41;8364698;28;20007;-91
2022/04/13 07:39:46;;;;;;;;;;;14.10;38.40;;;12.70;42.21;101443.31;8386182;28;19920;-93
2022/04/13 07:44:08;;;;;;;;;;;14.40;38.60;;;13.01;42.51;101457.38;8366430;28;20019;-90
2022/04/13 07:48:30;;;;;;;;;;;14.60;38.50;;;13.26;42.60;101456.97;8364016;28;20037;-87
2022/04/13 07:52:52;;;;;;;;;;;14.80;38.50;;;13.36;42.58;101444.16;8369974;28;19924;-86
2022/04/13 07:57:13;;;;;;;;;;;15.10;38.40;;;13.65;42.31;101440.75;8381316;28;19920;-85
2022/04/13 08:01:35;;;;;;;;;;;15.40;38.30;;;13.91;42.45;101451.56;8354298;28;20007;-87
2022/04/13 08:05:58;;;;;;;;;;;15.60;38.20;;;14.22;42.13;101450.63;8372465;28;20349;-91
2022/04/13 08:10:19;;;;;;;;;;;15.90;37.60;;;14.47;42.21;101441.28;8350751;28;20003;-91
2022/04/13 08:14:41;;;;;;;;;;;16.10;38.00;;;14.74;41.89;101433.53;8360821;28;19931;-87
2022/04/13 08:19:05;;;;;;;;;;;16.40;37.70;;;15.07;41.88;101448.16;8376251;28;19999;-86
2022/04/13 08:23:27;;;;;;;;;;;16.70;37.80;;;15.31;41.77;101456.28;8349221;28;20011;-85
2022/04/13 09:08:06;;;;;;;;;;;18.10;36.90;;;16.68;41.10;101441.06;8317846;28;20016;-86
2022/04/13 09:12:33;;;;;;;;;;;18.30;36.00;;;16.80;41.06;101436.75;8328607;28;20012;-87
2022/04/13 09:16:59;;;;;;;;;;;18.50;36.70;;;16.98;40.89;101431.97;8293547;28;19921;-88
2022/04/13 09:21:20;;;;;;;;;;;18.60;36.40;;;17.14;41.20;101426.44;8292336;28;20012;-90
2022/04/13 09:25:43;;;;;;;;;;;18.60;36.10;;;17.28;41.28;101426.28;8292726;28;20012;-88
2022/04/13 09:30:06;;;;;;;;;;;18.90;37.60;;;17.45;40.97;101420.63;8298695;28;20024;-91
2022/04/13 09:34:28;;;;;;;;;;;19.10;37.10;;;17.71;41.16;101428.44;8285927;28;20393;-89
2022/04/13 09:38:52;;;;;;;;;;;19.30;36.30;;;17.75;41.17;101405.28;8325746;28;19924;-89
2022/04/13 09:43:18;;;;;;;;;;;19.50;36.60;;;17.97;41.09;101407.19;8289748;28;20019;-89
2022/04/13 09:47:45;;;;;;;;;;;19.60;36.50;;;18.29;41.28;101425.88;8293347;28;19989;-89
2022/04/13 09:52:07;;;;;;;;;;;19.90;36.80;;;18.38;40.91;101406.66;8294048;28;19932;-81
2022/04/13 09:56:29;;;;;;;;;;;20.10;36.30;;;18.62;40.81;101413.66;8299549;28;19921;-83
2022/04/13 10:00:53;;;;;;;;;;;20.30;35.30;;;18.65;40.73;101400.19;8287475;28;20017;-83
2022/04/13 10:05:17;;;;;;;;;;;20.40;36.40;;;18.93;40.64;101406.81;8316371;28;19917;-87
2022/04/13 10:09:38;;;;;;;;;;;20.50;35.90;;;18.62;40.60;101329.84;8300246;28;19929;-81
2022/04/13 10:14:02;;;;;;;;;;;20.50;35.40;;;19.26;40.42;101411.22;8307259;28;19917;-80
2022/04/13 10:18:24;;;;;;;;;;;20.80;34.90;;;19.39;40.45;101417.19;8317580;28;19921;-81
2022/04/13 10:22:58;;;;;;;;;;;21.00;35.70;;;19.40;40.54;101391.53;8308616;28;20369;-80
2022/04/13 10:27:24;;;;;;;;;;;21.10;36.10;;;19.59;40.31;101415.56;8309335;28;20007;-79
2022/04/13 10:32:06;;;;;;;;;;;21.20;36.60;;;19.61;40.10;101391.59;8294645;28;19931;-79
2022/04/13 10:36:28;;;;;;;;;;;21.40;34.60;;;19.77;40.08;101409.75;8310299;28;20024;-79
2022/04/13 10:40:52;;;;;;;;;;;21.40;35.90;;;19.90;40.17;101418.34;8307165;28;20020;-81
2022/04/13 10:45:14;;;;;;;;;;;21.50;36.00;;;19.95;40.09;101402.06;8305842;28;20373;-81
2022/04/13 10:49:58;;;;;;;;;;;21.60;34.90;;;20.09;39.75;101405.22;8307463;28;19925;-86
2022/04/13 10:54:23;;;;;;;;;;;21.70;34.20;;;20.11;39.59;101382.06;8309968;28;20463;-81
2022/04/13 10:59:10;;;;;;;;;;;21.70;35.80;;;20.32;39.60;101399.78;8290323;28;19917;-83
2022/04/13 11:03:36;;;;;;;;;;;21.80;35.30;;;20.45;39.59;101386.28;8320897;28;20007;-82
2022/04/13 11:08:21;;;;;;;;;;;21.90;35.30;;;20.59;39.49;101391.28;8325874;28;19917;-81
2022/04/13 11:12:44;;;;;;;;;;;22.10;35.60;;;20.65;39.39;101382.75;8326191;28;19925;-82
2022/04/13 11:17:06;;;;;;;;;;;22.40;35.70;;;20.82;39.50;101386.63;8318952;28;19923;-88
2022/04/13 11:21:30;;;;;;;;;;;22.40;33.90;;;20.93;39.35;101375.06;8314073;28;20408;-84
2022/04/13 11:25:58;;;;;;;;;;;22.50;34.80;;;21.08;39.30;101373.66;8304528;28;20007;-81
2022/04/13 11:30:20;;;;;;;;;;;22.70;35.00;;;21.29;39.23;101378.03;8299806;28;19921;-87
2022/04/13 11:34:44;;;;;;;;;;;22.80;34.70;;;21.50;39.23;101380.59;8300630;28;20342;-83
2022/04/13 11:39:06;;;;;;;;;;;22.90;35.50;;;21.61;39.12;101377.81;8310656;28;19928;-83
2022/04/13 11:43:27;;;;;;;;;;;23.10;33.90;;;21.61;39.07;101354.72;8315378;28;19927;-81
2022/04/13 11:47:49;;;;;;;;;;;23.20;33.50;;;;;;8315755;28;19925;-82
2022/04/13 11:52:48;;;;;;;;;;;23.40;34.90;;;21.93;38.96;101381.94;8305905;28;19925;-82
2022/04/13 11:57:10;;;;;;;;;;;23.40;34.80;;;21.93;38.85;101372.16;8311966;28;19936;-81
2022/04/13 12:01:33;;;;;;;;;;;23.30;34.80;;;22.03;38.77;101364.97;8297513;28;19925;-81
2022/04/13 12:06:00;;;;;;;;;;;23.50;33.00;;;22.16;38.43;101367.34;8288742;28;19921;-81
2022/04/13 12:10:24;;;;;;;;;;;23.70;32.90;;;22.21;38.57;101356.31;8305800;28;20206;-80
2022/04/13 12:14:54;;;;;;;;;;;23.70;33.30;;;22.26;38.57;101335.41;8308674;28;19927;-80
2022/04/13 12:19:16;;;;;;;;;;;23.90;33.50;;;22.40;38.27;101342.09;8294680;28;19927;-81
2022/04/13 12:23:39;;;;;;;;;;;23.90;34.60;;;22.65;38.60;101356.53;8313709;28;19921;-80
2022/04/13 12:28:04;;;;;;;;;;;24.10;33.90;;;22.67;38.34;101333.25;8314222;28;19917;-80
2022/04/13 12:32:26;;;;;;;;;;;24.20;34.10;;;22.81;38.26;101346.06;8309064;28;19931;-81
2022/04/13 12:36:54;;;;;;;;;;;24.20;34.70;;;23.02;38.06;101360.97;8307812;28;19927;-81
2022/04/13 12:41:18;;;;;;;;;;;24.50;32.80;;;22.99;37.81;101337.31;8306644;28;19927;-80
2022/04/13 12:45:40;;;;;;;;;;;24.70;32.00;;;23.14;38.03;101346.44;8286601;28;19928;-79
2022/04/13 12:50:02;;;;;;;;;;;24.60;33.20;;;23.19;37.94;101338.81;8305020;28;19929;-80
2022/04/13 12:54:24;;;;;;;;;;;24.70;34.10;;;23.27;37.40;101335.41;8300334;28;19927;-81
2022/04/13 12:58:46;;;;;;;;;;;24.60;31.70;;;23.35;37.53;101344.31;8283964;28;20339;-81
2022/04/13 13:03:08;;;;;;;;;;;24.80;30.90;;;23.38;37.30;101332.50;8310230;28;19921;-81
2022/04/13 13:07:32;;;;;;;;;;;24.80;32.10;;;23.11;37.27;101288.97;8303299;28;19926;-81
2022/04/13 13:12:15;;;;;;;;;;;24.90;33.80;;;23.50;37.30;101341.13;8304656;28;20201;-81
2022/04/13 13:16:39;;;;;;;;;;;25.00;33.70;;;23.51;37.59;101342.78;8293622;28;19921;-82
2022/04/13 13:21:01;;;;;;;;;;;25.00;31.90;;;23.55;37.24;101337.00;8305161;28;19921;-81
2022/04/13 13:25:23;;;;;;;;;;;25.10;31.80;;;23.51;37.21;101322.28;8296382;28;19921;-81
2022/04/13 13:29:46;;;;;;;;;;;25.00;32.40;;;23.67;37.06;101337.56;8315063;28;19931;-81
2022/04/13 13:34:08;;;;;;;;;;;25.10;33.10;;;23.74;37.16;101338.66;8302302;28;19921;-82
2022/04/13 13:38:30;;;;;;;;;;;25.10;32.80;;;23.76;37.06;101334.03;8301596;28;19920;-80
2022/04/13 13:42:52;;;;;;;;;;;25.20;32.30;;;23.75;36.71;101329.66;8318005;28;19931;-81
2022/04/13 13:47:14;;;;;;;;;;;25.10;33.30;;;23.86;37.05;101341.91;8323416;28;19921;-81
2022/04/13 13:51:36;;;;;;;;;;;25.30;33.20;;;23.87;36.84;101334.72;8320450;28;19925;-80
2022/04/13 13:55:57;;;;;;;;;;;25.30;32.10;;;23.60;36.63;101288.50;8310246;28;19922;-80
2022/04/13 14:00:19;;;;;;;;;;;25.30;32.00;;;23.81;36.82;101318.34;8323646;28;19925;-81
2022/04/13 14:04:41;;;;;;;;;;;25.30;32.30;;;23.88;36.60;101333.75;8308961;28;19927;-80
2022/04/13 14:09:04;;;;;;;;;;;25.20;32.20;;;23.80;36.50;101316.69;8317970;28;19931;-80
2022/04/13 14:13:26;;;;;;;;;;;25.20;32.90;;;23.88;36.51;101323.09;8318391;28;19929;-80
2022/04/13 14:17:48;;;;;;;;;;;25.30;32.70;;;23.87;36.55;101310.72;8325852;28;19928;-85
2022/04/13 14:22:10;;;;;;;;;;;25.30;31.60;;;23.86;36.43;101304.56;8315711;28;19927;-82
2022/04/13 14:26:32;;;;;;;;;;;25.30;33.40;;;23.94;36.33;101317.94;8320213;28;19935;-81
2022/04/13 14:30:53;;;;;;;;;;;25.30;33.40;;;23.99;36.25;101320.97;8322480;28;19925;-81
2022/04/13 14:35:18;;;;;;;;;;;25.30;33.50;;;23.87;36.06;101295.56;8308513;28;19921;-82
2022/04/13 14:39:40;;;;;;;;;;;25.30;32.40;;;24.00;36.43;101305.81;8328326;28;19921;-82
2022/04/13 14:44:01;;;;;;;;;;;25.30;32.40;;;23.97;36.40;101290.13;8310374;28;19932;-81
2022/04/13 14:48:23;;;;;;;;;;;25.40;32.20;;;24.01;36.10;101296.81;8310730;28;19935;-83
2022/04/13 14:52:45;;;;;;;;;;;25.40;31.80;;;24.09;35.74;101310.22;8302755;28;19925;-80
2022/04/13 14:57:07;;;;;;;;;;;25.50;33.00;;;24.18;36.14;101317.25;8311142;28;19925;-82
2022/04/13 15:01:28;;;;;;;;;;;25.50;33.00;;;24.21;35.87;101319.59;8315309;28;19943;-83
2022/04/13 15:05:50;;;;;;;;;;;25.50;32.60;;;24.24;35.85;101318.44;8305571;28;19918;-88
2022/04/13 15:10:12;;;;;;;;;;;25.50;32.10;;;24.23;35.94;101314.94;8287127;28;19925;-90
2022/04/13 15:14:34;;;;;;;;;;;25.50;32.70;;;24.22;35.74;101302.59;8302072;28;19917;-91
2022/04/13 15:18:55;;;;;;;;;;;25.50;31.90;;;24.32;35.69;101309.63;8317403;28;19921;-86
2022/04/13 15:23:17;;;;;;;;;;;25.50;32.70;;;24.14;35.87;101285.69;8306227;28;19948;-87
2022/04/13 15:27:42;;;;;;;;;;;25.60;33.40;;;24.26;35.83;101313.78;8305334;28;19936;-87
2022/04/13 15:32:04;;;;;;;;;;;25.60;32.50;;;24.25;35.73;101302.28;8296091;28;20324;-92
2022/04/13 15:36:26;;;;;;;;;;;25.60;32.90;;;24.23;35.55;101285.59;8302570;28;20518;-89
2022/04/13 15:40:49;;;;;;;;;;;25.70;32.60;;;24.26;35.65;101287.94;8310679;28;19921;-87
2022/04/13 15:45:11;;;;;;;;;;;25.60;31.00;;;24.34;35.37;101296.97;8290371;28;19921;-87
2022/04/13 15:49:33;;;;;;;;;;;25.70;32.80;;;24.32;35.31;101293.63;8296221;28;19925;-86
2022/04/13 15:53:55;;;;;;;;;;;25.70;32.10;;;24.28;35.60;101295.78;8276029;28;19920;-86
2022/04/13 15:58:16;;;;;;;;;;;25.50;32.30;;;24.34;35.31;101302.31;8306173;28;19921;-85
2022/04/13 16:02:38;;;;;;;;;;;25.60;33.00;;;24.34;35.45;101303.16;8295356;28;19936;-86
2022/04/13 16:07:00;;;;;;;;;;;25.60;33.10;;;24.33;35.38;101311.31;8304177;28;20373;-86
2022/04/13 16:11:22;;;;;;;;;;;25.50;33.20;;;24.23;35.50;101296.25;8277472;28;19936;-86
2022/04/13 16:15:44;;;;;;;;;;;25.60;32.80;;;24.20;35.35;101283.22;8303129;28;20411;-86
2022/04/13 16:20:07;;;;;;;;;;;25.40;33.30;;;24.27;35.33;101308.28;8291146;28;19921;-86
2022/04/13 16:24:29;;;;;;;;;;;25.60;32.70;;;24.16;35.57;101300.56;8291138;28;19936;-86
2022/04/13 16:28:51;;;;;;;;;;;25.60;33.00;;;23.92;35.48;101252.41;8300184;28;19921;-86
2022/04/13 16:33:15;;;;;;;;;;;25.50;33.10;;;24.29;35.34;101321.47;8263172;28;20049;-87
2022/04/13 16:37:36;;;;;;;;;;;25.50;33.00;;;24.21;35.43;101308.91;8283248;28;19924;-86
2022/04/13 16:41:58;;;;;;;;;;;25.50;33.10;;;24.18;35.42;101303.91;8273525;28;19927;-86
2022/04/13 16:46:20;;;;;;;;;;;25.50;33.40;;;24.19;35.55;101304.72;8269775;28;19925;-86
2022/04/13 16:50:43;;;;;;;;;;;25.30;33.20;;;24.07;35.24;101290.84;8291210;28;19922;-86
2022/04/13 16:55:09;;;;;;;;;;;25.40;33.20;;;24.07;35.17;101296.19;8283595;28;19921;-87
2022/04/13 16:59:30;;;;;;;;;;;25.40;33.30;;;24.06;35.33;101302.50;8299941;28;20300;-86
2022/04/13 17:03:52;;;;;;;;;;;25.30;33.50;;;24.04;35.45;101301.84;8278029;28;19917;-86
2022/04/13 17:08:13;;;;;;;;;;;25.40;33.40;;;23.91;35.30;101296.91;8294346;28;20008;-86
2022/04/13 17:12:35;;;;;;;;;;;25.20;33.10;;;23.98;35.25;101318.47;8298260;28;19921;-86
2022/04/13 17:17:01;;;;;;;;;;;25.20;33.30;;;23.92;35.38;101316.44;8283601;28;19923;-86
2022/04/13 17:21:23;;;;;;;;;;;25.00;33.50;;;23.81;35.05;101318.34;8285994;28;19917;-86
2022/04/13 17:25:45;;;;;;;;;;;25.10;33.70;;;23.72;35.29;101302.47;8268783;28;19924;-86
2022/04/13 17:30:07;;;;;;;;;;;25.00;33.60;;;23.63;35.21;101306.91;8311291;28;19923;-86
2022/04/13 17:34:29;;;;;;;;;;;24.90;33.60;;;23.49;35.31;101307.44;8282271;28;19917;-86
2022/04/13 17:38:51;;;;;;;;;;;24.80;33.80;;;23.47;35.11;101309.44;8283942;28;20008;-87
2022/04/13 17:43:13;;;;;;;;;;;24.60;33.70;;;23.31;35.48;101302.13;8302947;28;20004;-86
2022/04/13 17:47:34;;;;;;;;;;;24.50;33.90;;;23.19;35.42;101310.34;8279493;28;19924;-86
2022/04/13 17:51:56;;;;;;;;;;;24.40;33.90;;;23.03;35.42;101302.19;8273381;28;19927;-87
2022/04/13 17:56:18;;;;;;;;;;;24.20;33.90;;;22.88;35.53;101296.53;8282832;28;19936;-87
2022/04/13 18:00:40;;;;;;;;;;;24.20;34.00;;;22.86;35.36;101314.50;8292336;28;19931;-86
2022/04/13 18:05:02;;;;;;;;;;;24.10;33.90;;;22.64;35.41;101304.28;8313560;28;20878;-89
2022/04/13 18:09:24;;;;;;;;;;;24.10;34.00;;;22.67;35.36;101331.44;8272572;28;19925;-86
2022/04/13 18:13:45;;;;;;;;;;;23.80;33.90;;;22.57;35.48;101333.31;8299304;28;19931;-86
2022/04/13 18:18:09;;;;;;;;;;;23.70;34.00;;;22.39;35.51;101330.59;8298351;28;19922;-87
2022/04/13 18:22:31;;;;;;;;;;;23.60;34.00;;;22.30;35.60;101334.13;8304380;28;19921;-86
2022/04/13 18:26:53;;;;;;;;;;;23.40;34.10;;;22.22;35.53;101345.50;8294079;28;20427;-87
2022/04/13 18:31:16;;;;;;;;;;;23.20;34.00;;;21.99;35.46;101334.34;8282791;28;20481;-87
2022/04/13 18:35:37;;;;;;;;;;;23.20;34.00;;;21.91;35.60;101355.50;8307533;28;19927;-85
2022/04/13 18:39:59;;;;;;;;;;;23.00;34.00;;;21.73;35.45;101341.25;8309101;28;19927;-85
2022/04/13 18:44:21;;;;;;;;;;;22.90;34.00;;;21.67;35.48;101355.97;8305611;28;19927;-85
2022/04/13 18:48:44;;;;;;;;;;;22.80;34.00;;;21.49;35.72;101347.00;8293841;28;19921;-85
2022/04/13 18:53:06;;;;;;;;;;;22.70;34.10;;;21.35;35.54;101337.63;8298102;28;19925;-85
2022/04/13 18:57:28;;;;;;;;;;;22.60;34.20;;;21.33;35.72;101353.72;8309238;28;19921;-85
2022/04/13 19:01:51;;;;;;;;;;;22.40;34.20;;;21.23;35.60;101362.66;8296489;28;19921;-85
2022/04/13 19:06:14;;;;;;;;;;;22.20;34.20;;;21.05;35.55;101350.03;8300603;28;19921;-85
2022/04/13 19:10:36;;;;;;;;;;;22.20;34.30;;;20.87;35.78;101333.94;8295904;28;19948;-85
2022/04/13 19:14:57;;;;;;;;;;;22.10;34.40;;;20.92;35.78;101360.91;8285304;28;19921;-85
2022/04/13 19:19:19;;;;;;;;;;;22.00;34.50;;;20.78;35.81;101348.03;8296608;28;19917;-85
2022/04/13 19:23:41;;;;;;;;;;;21.90;34.50;;;20.61;35.77;101340.72;8284772;28;19921;-85
2022/04/13 19:28:02;;;;;;;;;;;21.80;34.40;;;20.49;35.81;101350.56;8286134;28;19927;-85
2022/04/13 19:32:24;;;;;;;;;;;21.60;34.40;;;20.27;35.59;101347.09;8318069;28;19947;-85
2022/04/13 19:36:47;;;;;;;;;;;21.40;34.30;;;20.09;35.61;101344.25;8313320;28;19927;-85
2022/04/13 19:41:09;;;;;;;;;;;21.30;34.40;;;19.90;35.84;101336.16;8310430;28;19927;-85
2022/04/13 19:45:31;;;;;;;;;;;21.10;34.40;;;19.81;35.98;101329.81;8294668;28;20385;-85
2022/04/13 19:49:53;;;;;;;;;;;21.00;34.50;;;19.75;35.75;101342.78;8307214;28;19921;-85
2022/04/13 19:54:14;;;;;;;;;;;20.90;34.50;;;19.64;35.91;101344.47;8313334;28;19937;-85
2022/04/13 19:58:36;;;;;;;;;;;20.80;34.60;;;19.51;35.74;101341.16;8282235;28;19931;-86
2022/04/13 20:02:58;;;;;;;;;;;20.70;34.70;;;19.50;35.97;101352.75;8282177;28;19921;-85
2022/04/13 20:07:21;;;;;;;;;;;20.60;34.70;;;19.33;35.99;101346.16;8316236;28;20026;-85
2022/04/13 20:11:42;;;;;;;;;;;20.40;34.70;;;19.32;36.01;101357.75;8316753;28;19925;-86
2022/04/13 20:16:04;;;;;;;;;;;20.30;34.80;;;19.16;36.06;101347.56;8286642;28;19921;-85
2022/04/13 20:20:27;;;;;;;;;;;20.50;35.00;;;19.07;36.17;101342.19;8275270;28;20330;-86
2022/04/13 20:24:49;;;;;;;;;;;20.20;34.90;;;19.10;36.04;101352.53;8272391;28;19941;-86
2022/04/13 20:29:10;;;;;;;;;;;20.10;35.00;;;18.90;36.11;101340.88;8287400;28;19928;-85
2022/04/13 20:33:32;;;;;;;;;;;20.00;34.90;;;18.78;36.29;101345.38;8282226;28;19931;-85
2022/04/13 20:38:02;;;;;;;;;;;20.10;35.00;;;18.75;36.28;101361.50;8296957;28;20034;-85
2022/04/13 20:42:23;;;;;;;;;;;19.90;35.00;;;18.64;36.28;101353.53;8289383;28;19921;-85